Flight Track Log - Related Links

Times and Time Zones

All times are in EDT time to prevent confusion due to time zone crossing. See the C-GFSG flight status page for this flight to view local times or setup timezone preferences in your user account.

Time Position Orientation Groundspeed Altitude Reporting Facility
EDT Latitude Longitude Course Direction KTS MPH feet Rate Location/Type
Sat 03:39:20 PM 53.3167 -105.7167 22° Northeast 150 173 8,300  Level Winnipeg Center
Sat 03:40:20 PM 53.3500 -105.7000 17° North 160 184 10,100 1,950 Climbing Winnipeg Center
Sat 03:41:20 PM 53.4000 -105.6500 31° Northeast 170 196 12,200 1,900 Climbing Winnipeg Center
Sat 03:42:00 PM 53.6196 -105.5761 North  Level FlightAware Approximate
Sat 03:42:20 PM 53.4333 -105.6667 343° North 170 196 13,900  Level Winnipeg Center
Sat 03:43:00 PM 53.6796 -105.5641 North  Level FlightAware Approximate
Sat 03:43:20 PM 53.5000 -105.6500 North 210 242 14,100  Level Winnipeg Center
Sat 03:44:20 PM 53.5667 -105.6333 North 250 288 14,000 -50 Descending Winnipeg Center
Sat 03:45:20 PM 53.6333 -105.5833 24° Northeast 260 299 14,000  Level Winnipeg Center
Sat 03:46:20 PM 53.7167 -105.6000 353° North 270 311 14,000  Level Winnipeg Center
Sat 03:47:20 PM 53.7833 -105.6000 360° North 270 311 14,000  Level Winnipeg Center
Sat 03:48:20 PM 53.8667 -105.5500 19° North 270 311 14,000  Level Winnipeg Center
Sat 03:49:20 PM 53.9500 -105.5333 North 260 299 14,000  Level Winnipeg Center
Sat 03:50:20 PM 54.0167 -105.5333 360° North 260 299 14,000  Level Winnipeg Center
Sat 03:51:20 PM 54.0833 -105.5167 North 260 299 14,000  Level Winnipeg Center
Sat 03:52:20 PM 54.1500 -105.5000 North 260 299 14,000  Level Winnipeg Center
Sat 03:53:20 PM 54.2167 -105.4833 North 260 299 14,000  Level Winnipeg Center
Sat 03:54:20 PM 54.3000 -105.4667 North 260 299 14,000  Level Winnipeg Center
Sat 03:55:20 PM 54.3667 -105.4500 North 260 299 14,000  Level Winnipeg Center
Sat 03:56:20 PM 54.4333 -105.4333 North 260 299 14,000  Level Winnipeg Center
Sat 03:57:20 PM 54.5167 -105.4333 360° North 260 299 14,000 -400 Level Winnipeg Center
Sat 03:58:20 PM 54.6000 -105.4167 North 260 299 13,200 -1,400 Descending Winnipeg Center
Sat 03:59:20 PM 54.6833 -105.4000 North 280 322 11,200 -1,800 Descending Winnipeg Center
Sat 04:00:20 PM 54.7500 -105.3833 North 280 322 9,600 -1,500 Descending Winnipeg Center
Sat 04:01:20 PM 54.8167 -105.3667 North 270 311 8,200 -1,400 Descending Winnipeg Center
Sat 04:02:20 PM 54.8833 -105.3500 North 230 265 6,800 -1,400 Descending Winnipeg Center
Sat 04:03:20 PM 54.9333 -105.3333 11° North 220 253 5,400 -1,300 Descending Winnipeg Center
Sat 04:04:20 PM 55.0000 -105.3167 North 210 242 4,200 -1,050 Descending Winnipeg Center
Sat 04:05:20 PM 55.0500 -105.3000 11° North 190 219 3,300 -1,000 Descending Winnipeg Center
Sat 04:06:20 PM 55.0833 -105.3167 344° North 160 184 2,200 -950 Descending Winnipeg Center
Sat 04:07:20 PM 55.1167 -105.2833 30° Northeast 130 150 1,400 -800 Descending Winnipeg Center

Login

Don't have an account? Register now (free) for customized features, flight alerts, and more!